Time;durP1;ratioP1;P1;durP2;ratioP2;P2;SDS_P1;SDS_P2;PMS_P1;PMS_P2;Temp;Humidity;BMP_temperature;BMP_pressure;BME280_temperature;BME280_humidity;BME280_pressure;Samples;Min_cycle;Max_cycle;Signal;HPM_P1;HPM_P2
2021/03/06 00:02:12;;;;;;;6.43;4.25;;;;;;;;;;5032945;28;20562;-73
2021/03/06 00:04:38;;;;;;;7.97;4.53;;;;;;;;;;5033209;28;20057;-73
2021/03/06 00:07:04;;;;;;;7.38;4.88;;;;;;;;;;5031308;28;20115;-73
2021/03/06 00:09:30;;;;;;;7.05;4.88;;;;;;;;;;5033049;28;20085;-73
2021/03/06 00:11:56;;;;;;;7.85;4.68;;;;;;;;;;4999310;28;20053;-73
2021/03/06 00:14:22;;;;;;;7.88;4.72;;;;;;;;;;5032918;28;20103;-73
2021/03/06 00:16:48;;;;;;;7.50;4.82;;;;;;;;;;5014731;28;20057;-73
2021/03/06 00:19:15;;;;;;;6.75;4.45;;;;;;;;;;5032753;28;20045;-73
2021/03/06 00:21:41;;;;;;;8.02;4.43;;;;;;;;;;5032707;28;20087;-73
2021/03/06 00:24:07;;;;;;;10.18;4.70;;;;;;;;;;5032843;28;20123;-73
2021/03/06 00:26:33;;;;;;;7.07;4.80;;;;;;;;;;4998201;28;20516;-73
2021/03/06 00:28:59;;;;;;;8.93;5.45;;;;;;;;;;5031339;28;20099;-73
2021/03/06 00:31:25;;;;;;;8.38;5.53;;;;;;;;;;5032691;28;20049;-73
2021/03/06 00:33:52;;;;;;;6.20;4.70;;;;;;;;;;5015244;28;20055;-74
2021/03/06 00:36:18;;;;;;;7.90;5.03;;;;;;;;;;5031866;28;20053;-73
2021/03/06 00:38:44;;;;;;;9.15;4.90;;;;;;;;;;5014853;28;20049;-73
2021/03/06 00:41:10;;;;;;;8.80;4.55;;;;;;;;;;5032541;28;20049;-73
2021/03/06 00:43:36;;;;;;;9.68;4.60;;;;;;;;;;5032310;28;20484;-73
2021/03/06 00:46:03;;;;;;;7.32;4.47;;;;;;;;;;5031693;28;20492;-73
2021/03/06 00:48:29;;;;;;;8.23;4.70;;;;;;;;;;5032336;28;20045;-73
2021/03/06 00:50:55;;;;;;;9.95;5.43;;;;;;;;;;5014762;28;20053;-73
2021/03/06 00:53:21;;;;;;;7.43;5.10;;;;;;;;;;5032245;28;20489;-73
2021/03/06 00:55:47;;;;;;;9.43;5.78;;;;;;;;;;5031778;28;20119;-73
2021/03/06 00:58:13;;;;;;;11.60;6.85;;;;;;;;;;5032161;28;20080;-73
2021/03/06 01:00:39;;;;;;;10.65;7.35;;;;;;;;;;5032262;28;20050;-73
2021/03/06 01:03:06;;;;;;;9.52;6.55;;;;;;;;;;5031993;28;20041;-74
2021/03/06 01:05:33;;;;;;;8.52;6.22;;;;;;;;;;5031156;28;20103;-73
2021/03/06 01:07:59;;;;;;;10.70;6.40;;;;;;;;;;5014639;28;20075;-74
2021/03/06 01:10:28;;;;;;;10.23;6.25;;;;;;;;;;5031913;28;20052;-73
2021/03/06 01:12:54;;;;;;;11.32;6.40;;;;;;;;;;5014625;28;20045;-73
2021/03/06 01:15:20;;;;;;;10.82;6.05;;;;;;;;;;4997475;28;20057;-73
2021/03/06 01:17:46;;;;;;;11.50;6.25;;;;;;;;;;5030872;28;20053;-74
2021/03/06 01:20:14;;;;;;;7.57;5.22;;;;;;;;;;5030459;28;20563;-73
2021/03/06 01:22:40;;;;;;;9.18;6.00;;;;;;;;;;4998208;28;20045;-73
2021/03/06 01:25:06;;;;;;;12.30;6.93;;;;;;;;;;5031602;28;20049;-73
2021/03/06 01:27:32;;;;;;;7.95;5.63;;;;;;;;;;5013988;28;20459;-73
2021/03/06 01:29:58;;;;;;;9.40;5.25;;;;;;;;;;5031744;28;20084;-73
2021/03/06 01:32:24;;;;;;;10.30;6.00;;;;;;;;;;5031726;28;20466;-73
2021/03/06 01:34:51;;;;;;;9.98;5.40;;;;;;;;;;5015325;28;20471;-73
2021/03/06 01:37:17;;;;;;;8.65;5.38;;;;;;;;;;5032075;28;20463;-73
2021/03/06 01:39:43;;;;;;;10.20;5.63;;;;;;;;;;5031831;28;20069;-73
2021/03/06 01:42:09;;;;;;;8.98;5.75;;;;;;;;;;5031140;28;20099;-73
2021/03/06 01:44:36;;;;;;;8.27;5.35;;;;;;;;;;5014254;28;20521;-73
2021/03/06 01:47:02;;;;;;;7.65;5.03;;;;;;;;;;5029800;28;20111;-74
2021/03/06 01:49:28;;;;;;;9.95;5.72;;;;;;;;;;5031295;28;20060;-73
2021/03/06 01:51:58;;;;;;;8.02;5.45;;;;;;;;;;5031549;28;20452;-73
2021/03/06 01:54:25;;;;;;;8.35;5.22;;;;;;;;;;5014142;28;20420;-73
2021/03/06 01:56:52;;;;;;;8.38;5.82;;;;;;;;;;5013542;28;20141;-73
2021/03/06 01:59:18;;;;;;;9.05;5.28;;;;;;;;;;5031379;28;20590;-73
2021/03/06 02:01:45;;;;;;;11.30;5.75;;;;;;;;;;4997646;28;20103;-73
2021/03/06 02:04:12;;;;;;;7.28;4.78;;;;;;;;;;5013894;28;20049;-73
2021/03/06 02:06:38;;;;;;;7.90;4.97;;;;;;;;;;5030677;28;20089;-73
2021/03/06 02:09:05;;;;;;;8.65;5.32;;;;;;;;;;5029826;28;20053;-74
2021/03/06 02:11:37;;;;;;;8.38;5.43;;;;;;;;;;5031354;28;20081;-73
2021/03/06 02:14:11;;;;;;;8.52;5.00;;;;;;;;;;5014281;28;20099;-73
2021/03/06 02:16:47;;;;;;;8.43;4.90;;;;;;;;;;5013317;28;20057;-73
2021/03/06 02:19:29;;;;;;;12.20;6.05;;;;;;;;;;4997826;28;20060;-73
2021/03/06 02:22:31;;;;;;;10.98;5.85;;;;;;;;;;5031266;28;20050;-73
2021/03/06 02:25:54;;;;;;;9.95;6.55;;;;;;;;;;5018549;28;20100;-73
2021/03/06 02:28:57;;;;;;;11.38;6.88;;;;;;;;;;5013126;28;20488;-73
2021/03/06 02:31:23;;;;;;;9.02;5.95;;;;;;;;;;5031108;28;20073;-73
2021/03/06 02:34:16;;;;;;;10.70;6.97;;;;;;;;;;4997418;28;20046;-73
2021/03/06 02:36:47;;;;;;;8.93;5.93;;;;;;;;;;5027758;28;20045;-73
2021/03/06 02:39:15;;;;;;;9.35;6.05;;;;;;;;;;4981335;28;20057;-73
2021/03/06 02:41:42;;;;;;;9.23;5.72;;;;;;;;;;5013411;28;20553;-73
2021/03/06 02:44:09;;;;;;;8.85;5.63;;;;;;;;;;4997196;28;20089;-73
2021/03/06 02:46:35;;;;;;;9.35;5.90;;;;;;;;;;5013227;28;20061;-73
2021/03/06 02:49:01;;;;;;;8.90;6.18;;;;;;;;;;5013400;28;20400;-73
2021/03/06 02:51:38;;;;;;;8.70;5.25;;;;;;;;;;5030951;28;20045;-73
2021/03/06 02:54:05;;;;;;;7.85;5.53;;;;;;;;;;5016836;28;20045;-73
2021/03/06 02:56:32;;;;;;;9.98;5.35;;;;;;;;;;5032618;28;20050;-73
2021/03/06 02:59:17;;;;;;;7.47;4.95;;;;;;;;;;5000770;28;20127;-73
2021/03/06 03:01:52;;;;;;;9.45;5.55;;;;;;;;;;5034395;28;20558;-73
2021/03/06 03:04:33;;;;;;;7.43;4.88;;;;;;;;;;5034225;28;20467;-73
2021/03/06 03:07:12;;;;;;;7.78;5.60;;;;;;;;;;5016089;28;20049;-74
2021/03/06 03:09:42;;;;;;;7.50;5.13;;;;;;;;;;5016709;28;20107;-73
2021/03/06 03:12:12;;;;;;;10.10;5.88;;;;;;;;;;5000575;28;20045;-73
2021/03/06 03:14:47;;;;;;;7.15;4.68;;;;;;;;;;5016905;28;20053;-73
2021/03/06 03:17:18;;;;;;;7.88;5.07;;;;;;;;;;4999742;28;20471;-73
2021/03/06 03:19:50;;;;;;;7.13;4.70;;;;;;;;;;5016969;28;20471;-74
2021/03/06 03:22:17;;;;;;;8.68;5.20;;;;;;;;;;5016255;28;20088;-73
2021/03/06 03:24:43;;;;;;;7.57;5.05;;;;;;;;;;5016605;28;20056;-73
2021/03/06 03:27:10;;;;;;;8.45;5.70;;;;;;;;;;5032129;28;20049;-73
2021/03/06 03:29:40;;;;;;;9.38;5.97;;;;;;;;;;5000167;28;20072;-73
2021/03/06 03:32:08;;;;;;;7.13;4.47;;;;;;;;;;4983961;28;20485;-73
2021/03/06 03:34:35;;;;;;;9.15;5.80;;;;;;;;;;5000412;28;20461;-73
2021/03/06 03:37:02;;;;;;;8.30;4.47;;;;;;;;;;4999429;28;20111;-73
2021/03/06 03:39:29;;;;;;;6.60;4.78;;;;;;;;;;4999946;28;20053;-73
2021/03/06 03:41:55;;;;;;;6.22;4.93;;;;;;;;;;4999872;28;20053;-73
2021/03/06 03:44:21;;;;;;;8.80;5.25;;;;;;;;;;5015831;28;20108;-73
2021/03/06 03:46:47;;;;;;;9.15;4.75;;;;;;;;;;5015343;28;20416;-74
2021/03/06 03:49:17;;;;;;;6.20;4.78;;;;;;;;;;4999693;28;20424;-74
2021/03/06 03:51:43;;;;;;;7.70;4.18;;;;;;;;;;5016242;28;20128;-73
2021/03/06 03:54:09;;;;;;;9.32;5.50;;;;;;;;;;5015687;28;20049;-73
2021/03/06 03:56:35;;;;;;;8.63;5.28;;;;;;;;;;5015307;28;20076;-73
2021/03/06 03:59:01;;;;;;;9.68;5.68;;;;;;;;;;5033236;28;20049;-74
2021/03/06 04:01:36;;;;;;;8.05;5.38;;;;;;;;;;5015679;28;20053;-73
2021/03/06 04:04:04;;;;;;;8.07;4.90;;;;;;;;;;5018068;28;20486;-73
2021/03/06 04:06:30;;;;;;;8.27;4.93;;;;;;;;;;4999058;28;20140;-73
2021/03/06 04:08:56;;;;;;;9.45;4.45;;;;;;;;;;5033250;28;20053;-74
2021/03/06 04:11:22;;;;;;;8.18;4.32;;;;;;;;;;5033076;28;20554;-73
2021/03/06 04:13:48;;;;;;;6.85;4.05;;;;;;;;;;5033199;28;20050;-73
2021/03/06 04:16:14;;;;;;;6.35;4.53;;;;;;;;;;5031026;28;20139;-74
2021/03/06 04:18:40;;;;;;;7.43;4.82;;;;;;;;;;5015394;28;20053;-74
2021/03/06 04:21:06;;;;;;;5.03;3.67;;;;;;;;;;5032995;28;20488;-73
2021/03/06 04:23:32;;;;;;;5.32;4.20;;;;;;;;;;5032758;28;20068;-74
2021/03/06 04:25:59;;;;;;;9.90;4.43;;;;;;;;;;5032283;28;20474;-74
2021/03/06 04:28:25;;;;;;;5.55;4.13;;;;;;;;;;5032511;28;20557;-74
2021/03/06 04:30:51;;;;;;;7.38;4.45;;;;;;;;;;5034203;23;20136;-68
2021/03/06 04:33:18;;;;;;;7.25;4.50;;;;;;;;;;5032586;28;20538;-69
2021/03/06 04:35:44;;;;;;;6.95;4.80;;;;;;;;;;5032025;28;20131;-70
2021/03/06 04:38:10;;;;;;;6.35;4.68;;;;;;;;;;5032623;28;20119;-69
2021/03/06 04:40:36;;;;;;;8.55;5.25;;;;;;;;;;5032682;28;20054;-70
2021/03/06 04:43:02;;;;;;;6.40;4.50;;;;;;;;;;5032440;28;20104;-70
2021/03/06 04:45:28;;;;;;;8.68;4.57;;;;;;;;;;5031580;28;20103;-70
2021/03/06 04:47:55;;;;;;;6.70;4.65;;;;;;;;;;5032597;28;20045;-69
2021/03/06 04:50:21;;;;;;;4.95;3.75;;;;;;;;;;5032269;28;20458;-70
2021/03/06 04:52:47;;;;;;;8.38;4.70;;;;;;;;;;5032154;28;20072;-70
2021/03/06 04:55:13;;;;;;;6.15;4.60;;;;;;;;;;5031769;28;20099;-70
2021/03/06 04:57:39;;;;;;;6.85;4.75;;;;;;;;;;5032095;28;20045;-70
2021/03/06 05:00:07;;;;;;;6.53;4.47;;;;;;;;;;5032027;28;20567;-70
2021/03/06 05:02:34;;;;;;;6.50;4.82;;;;;;;;;;5031937;28;20049;-70
2021/03/06 05:05:01;;;;;;;6.65;4.07;;;;;;;;;;5032069;28;20057;-70
2021/03/06 05:07:27;;;;;;;5.70;4.45;;;;;;;;;;5031481;28;20100;-70
2021/03/06 05:09:53;;;;;;;6.85;4.32;;;;;;;;;;5031727;28;20523;-70
2021/03/06 05:12:19;;;;;;;7.38;4.32;;;;;;;;;;5031808;28;20073;-70
2021/03/06 05:14:45;;;;;;;8.25;4.50;;;;;;;;;;5031828;28;20105;-70
2021/03/06 05:17:11;;;;;;;7.68;5.13;;;;;;;;;;5031115;28;20477;-70
2021/03/06 05:19:38;;;;;;;7.40;5.18;;;;;;;;;;5031942;28;20416;-70
2021/03/06 05:22:04;;;;;;;6.25;4.45;;;;;;;;;;5031727;28;20492;-71
2021/03/06 05:24:30;;;;;;;4.70;3.80;;;;;;;;;;5031751;28;20049;-70
2021/03/06 05:27:03;;;;;;;7.63;5.05;;;;;;;;;;5031150;28;20119;-70
2021/03/06 05:29:30;;;;;;;;;;;;;;;;;;5031954;28;20061;-70
2021/03/06 05:31:56;;;;;;;6.30;4.03;;;;;;;;;;5031748;28;19956;-70
2021/03/06 05:34:22;;;;;;;6.05;4.53;;;;;;;;;;5031661;28;20052;-70
2021/03/06 05:36:50;;;;;;;7.53;4.70;;;;;;;;;;5031187;28;20053;-70
2021/03/06 05:39:16;;;;;;;6.72;5.13;;;;;;;;;;5031369;28;20049;-70
2021/03/06 05:41:43;;;;;;;8.15;4.85;;;;;;;;;;5031518;28;20508;-70
2021/03/06 05:44:09;;;;;;;5.97;4.40;;;;;;;;;;5014158;28;20488;-71
2021/03/06 05:46:37;;;;;;;6.85;4.22;;;;;;;;;;4997244;28;20059;-70
2021/03/06 05:49:04;;;;;;;8.45;4.90;;;;;;;;;;5031607;28;20053;-70
2021/03/06 05:51:35;;;;;;;7.45;4.75;;;;;;;;;;5031147;28;20057;-71
2021/03/06 05:54:19;;;;;;;8.80;4.45;;;;;;;;;;5031619;28;20054;-70
2021/03/06 05:56:45;;;;;;;7.00;4.32;;;;;;;;;;5030922;28;20057;-70
2021/03/06 05:59:12;;;;;;;7.80;4.88;;;;;;;;;;4997526;28;20049;-72
2021/03/06 06:01:40;;;;;;;7.50;4.57;;;;;;;;;;5031401;28;20057;-71
2021/03/06 06:04:07;;;;;;;6.75;4.30;;;;;;;;;;5031412;28;20084;-70
2021/03/06 06:06:35;;;;;;;7.13;4.35;;;;;;;;;;5030630;28;20500;-70
2021/03/06 06:09:03;;;;;;;6.85;4.28;;;;;;;;;;5031419;28;20050;-70
2021/03/06 06:11:29;;;;;;;6.60;4.85;;;;;;;;;;5031162;28;20504;-70
2021/03/06 06:13:56;;;;;;;8.07;4.55;;;;;;;;;;5031163;28;20135;-71
2021/03/06 06:16:22;;;;;;;6.75;4.55;;;;;;;;;;5027628;28;20080;-70
2021/03/06 06:18:49;;;;;;;6.68;4.38;;;;;;;;;;5013907;28;20046;-70
2021/03/06 06:21:37;;;;;;;7.70;5.03;;;;;;;;;;5031233;28;20580;-70
2021/03/06 06:24:05;;;;;;;6.60;4.88;;;;;;;;;;5031349;28;20099;-70
2021/03/06 06:26:31;;;;;;;7.15;4.25;;;;;;;;;;5031337;28;20111;-70
2021/03/06 06:28:57;;;;;;;5.53;4.35;;;;;;;;;;5034890;28;20049;-70
2021/03/06 06:31:24;;;;;;;7.72;5.65;;;;;;;;;;5035112;28;20107;-70
2021/03/06 06:33:53;;;;;;;7.65;4.90;;;;;;;;;;5016139;28;20053;-69
2021/03/06 06:36:38;;;;;;;5.45;4.38;;;;;;;;;;5014411;28;20050;-70
2021/03/06 06:39:09;;;;;;;8.05;5.10;;;;;;;;;;5015079;28;20049;-70
2021/03/06 06:41:56;;;;;;;7.65;4.88;;;;;;;;;;5014940;28;20046;-70
2021/03/06 06:44:23;;;;;;;7.65;5.03;;;;;;;;;;5014705;28;20093;-70
2021/03/06 06:46:50;;;;;;;6.80;4.45;;;;;;;;;;5014546;28;20088;-69
2021/03/06 06:49:17;;;;;;;7.28;4.63;;;;;;;;;;5015150;28;20046;-68
2021/03/06 06:51:58;;;;;;;6.68;4.35;;;;;;;;;;5014711;28;20085;-69
2021/03/06 06:54:24;;;;;;;7.90;4.88;;;;;;;;;;5014648;28;20541;-69
2021/03/06 06:56:50;;;;;;;7.53;4.68;;;;;;;;;;5014162;28;20480;-70
2021/03/06 06:59:18;;;;;;;7.25;4.72;;;;;;;;;;5013678;28;20123;-70
2021/03/06 07:01:44;;;;;;;5.97;4.28;;;;;;;;;;5015498;28;20049;-70
2021/03/06 07:04:11;;;;;;;8.60;5.78;;;;;;;;;;4997535;28;20076;-70
2021/03/06 07:06:40;;;;;;;9.52;5.38;;;;;;;;;;5014542;28;20054;-70
2021/03/06 07:09:12;;;;;;;5.80;4.88;;;;;;;;;;4997670;28;20050;-70
2021/03/06 07:11:40;;;;;;;5.93;4.57;;;;;;;;;;5015067;28;20053;-70
2021/03/06 07:14:06;;;;;;;8.98;4.90;;;;;;;;;;5014685;28;20112;-70
2021/03/06 07:16:56;;;;;;;7.00;4.35;;;;;;;;;;4966445;28;20054;-71
2021/03/06 07:19:29;;;;;;;6.78;4.75;;;;;;;;;;5031373;28;20496;-70
2021/03/06 07:21:57;;;;;;;5.65;4.10;;;;;;;;;;5030777;28;20095;-70
2021/03/06 07:24:27;;;;;;;7.32;4.78;;;;;;;;;;5031859;28;20107;-70
2021/03/06 07:26:54;;;;;;;7.13;4.95;;;;;;;;;;5030537;28;20049;-71
2021/03/06 07:29:21;;;;;;;6.30;4.70;;;;;;;;;;5029972;28;20103;-70
2021/03/06 07:31:52;;;;;;;5.45;4.35;;;;;;;;;;5045571;28;20052;-68
2021/03/06 07:34:20;;;;;;;6.82;4.50;;;;;;;;;;5051632;28;20045;-70
2021/03/06 07:36:46;;;;;;;6.63;4.82;;;;;;;;;;5051069;28;20206;-70
2021/03/06 07:39:14;;;;;;;5.85;4.00;;;;;;;;;;5050635;28;20061;-69
2021/03/06 07:41:43;;;;;;;7.13;4.53;;;;;;;;;;5038308;28;20045;-70
2021/03/06 07:44:12;;;;;;;7.57;5.10;;;;;;;;;;5030212;28;20138;-70
2021/03/06 07:46:38;;;;;;;7.57;5.13;;;;;;;;;;5030926;28;20072;-69
2021/03/06 07:49:12;;;;;;;6.20;4.18;;;;;;;;;;5031481;28;20411;-71
2021/03/06 07:51:40;;;;;;;7.63;4.93;;;;;;;;;;5031543;28;20080;-71
2021/03/06 07:54:07;;;;;;;6.13;4.78;;;;;;;;;;5013909;28;20046;-70
2021/03/06 07:56:33;;;;;;;7.20;4.43;;;;;;;;;;5012534;28;20597;-70
2021/03/06 07:59:04;;;;;;;6.40;4.65;;;;;;;;;;5015113;28;20423;-68
2021/03/06 08:01:32;;;;;;;6.57;4.22;;;;;;;;;;5033117;28;20520;-66
2021/03/06 08:04:00;;;;;;;6.30;4.32;;;;;;;;;;5047290;28;20049;-71
2021/03/06 08:06:30;;;;;;;7.50;4.95;;;;;;;;;;5049348;28;20095;-70
2021/03/06 08:09:11;;;;;;;7.43;4.57;;;;;;;;;;5050313;28;20048;-70
2021/03/06 08:11:40;;;;;;;6.97;3.40;;;;;;;;;;5050218;28;20049;-71
2021/03/06 08:14:25;;;;;;;5.85;4.68;;;;;;;;;;5046039;28;20765;-71
2021/03/06 08:16:51;;;;;;;6.70;4.95;;;;;;;;;;5048811;28;20095;-70
2021/03/06 08:19:18;;;;;;;6.68;4.80;;;;;;;;;;5031967;28;20048;-71
2021/03/06 08:21:47;;;;;;;6.18;4.65;;;;;;;;;;5051422;28;20064;-71
2021/03/06 08:24:18;;;;;;;6.43;4.07;;;;;;;;;;5049266;28;20102;-70
2021/03/06 08:27:11;;;;;;;9.43;5.03;;;;;;;;;;5048211;28;20503;-71
2021/03/06 08:29:47;;;;;;;6.28;4.90;;;;;;;;;;5049487;28;20053;-69
2021/03/06 08:32:25;;;;;;;6.55;4.70;;;;;;;;;;5051674;28;20090;-71
2021/03/06 08:34:56;;;;;;;5.65;4.47;;;;;;;;;;5052307;28;20041;-69
2021/03/06 08:37:23;;;;;;;7.88;4.97;;;;;;;;;;5047610;28;20118;-71
2021/03/06 08:39:52;;;;;;;6.50;5.15;;;;;;;;;;5051041;28;20084;-71
2021/03/06 08:42:40;;;;;;;7.38;5.20;;;;;;;;;;5032812;28;20476;-71
2021/03/06 08:45:13;;;;;;;5.78;4.82;;;;;;;;;;5049620;28;20079;-70
2021/03/06 08:47:41;;;;;;;9.27;5.75;;;;;;;;;;5048785;28;20057;-71
2021/03/06 08:50:12;;;;;;;6.07;5.47;;;;;;;;;;5051008;28;20191;-70
2021/03/06 08:52:39;;;;;;;6.72;4.60;;;;;;;;;;5050841;28;20049;-71
2021/03/06 08:55:07;;;;;;;6.68;4.50;;;;;;;;;;5032906;28;20091;-69
2021/03/06 08:57:39;;;;;;;6.25;4.95;;;;;;;;;;5050504;28;20106;-70
2021/03/06 09:00:17;;;;;;;5.85;4.75;;;;;;;;;;5049823;28;20045;-70
2021/03/06 09:02:43;;;;;;;5.47;3.47;;;;;;;;;;5050338;28;20519;-71
2021/03/06 09:05:14;;;;;;;5.53;4.10;;;;;;;;;;5023291;28;20156;-72
2021/03/06 09:07:42;;;;;;;5.07;4.15;;;;;;;;;;5050178;28;20049;-71
2021/03/06 09:10:31;;;;;;;4.28;3.85;;;;;;;;;;5050414;28;20056;-70
2021/03/06 09:13:28;;;;;;;4.95;3.40;;;;;;;;;;5049799;28;20048;-72
2021/03/06 09:15:57;;;;;;;5.05;3.83;;;;;;;;;;5033386;28;20099;-70
2021/03/06 09:18:26;;;;;;;5.82;4.43;;;;;;;;;;5050081;28;20044;-72
2021/03/06 09:20:55;;;;;;;4.53;3.50;;;;;;;;;;5049892;28;20098;-70
2021/03/06 09:23:27;;;;;;;4.07;3.55;;;;;;;;;;5049762;28;20040;-72
2021/03/06 09:25:54;;;;;;;5.05;3.47;;;;;;;;;;5049143;28;20084;-72
2021/03/06 09:28:25;;;;;;;8.05;4.35;;;;;;;;;;5050186;28;20115;-72
2021/03/06 09:30:51;;;;;;;6.93;4.25;;;;;;;;;;5050134;28;20462;-73
2021/03/06 09:33:28;;;;;;;6.38;3.95;;;;;;;;;;5050951;28;20041;-72
2021/03/06 09:36:07;;;;;;;5.57;3.90;;;;;;;;;;5050957;28;20048;-73
2021/03/06 09:38:57;;;;;;;5.20;4.05;;;;;;;;;;5049977;28;20470;-71
2021/03/06 09:41:24;;;;;;;4.88;3.33;;;;;;;;;;5050164;28;20057;-72
2021/03/06 09:43:52;;;;;;;6.05;3.67;;;;;;;;;;5050545;28;20478;-73
2021/03/06 09:46:19;;;;;;;5.97;4.15;;;;;;;;;;5047724;28;20178;-73
2021/03/06 09:48:47;;;;;;;3.72;3.33;;;;;;;;;;5050601;28;20085;-72
2021/03/06 09:51:14;;;;;;;5.53;3.70;;;;;;;;;;5050159;28;20045;-72
2021/03/06 09:53:40;;;;;;;4.72;3.38;;;;;;;;;;5050064;28;20103;-72
2021/03/06 09:56:09;;;;;;;4.07;3.22;;;;;;;;;;5050298;28;20045;-72
2021/03/06 09:58:36;;;;;;;4.60;3.72;;;;;;;;;;5047054;28;20080;-72
2021/03/06 10:01:13;;;;;;;4.20;3.40;;;;;;;;;;5050290;28;20079;-71
2021/03/06 10:03:40;;;;;;;6.68;3.38;;;;;;;;;;5056441;28;20515;-70
2021/03/06 10:06:07;;;;;;;3.95;3.30;;;;;;;;;;5042124;28;20143;-70
2021/03/06 10:08:37;;;;;;;5.03;3.70;;;;;;;;;;5061237;28;20061;-71
2021/03/06 10:11:03;;;;;;;4.88;3.67;;;;;;;;;;5019601;28;20152;-67
2021/03/06 10:13:30;;;;;;;5.10;3.60;;;;;;;;;;5038967;28;20080;-72
2021/03/06 10:15:57;;;;;;;4.05;3.20;;;;;;;;;;5035860;28;20084;-70
2021/03/06 10:18:25;;;;;;;6.75;3.33;;;;;;;;;;5009855;28;20053;-69
2021/03/06 10:20:51;;;;;;;4.57;3.35;;;;;;;;;;5053592;28;20643;-70
2021/03/06 10:23:33;;;;;;;4.38;3.20;;;;;;;;;;5036305;28;20072;-69
2021/03/06 10:26:13;;;;;;;4.80;3.38;;;;;;;;;;5053343;28;20048;-70
2021/03/06 10:28:39;;;;;;;5.85;3.10;;;;;;;;;;5052828;28;20480;-70
2021/03/06 10:31:28;;;;;;;4.78;3.45;;;;;;;;;;5086283;22;20037;-69
2021/03/06 10:33:56;;;;;;;3.97;3.58;;;;;;;;;;5054913;28;20063;-69
2021/03/06 10:36:23;;;;;;;4.63;3.47;;;;;;;;;;5054870;28;20125;-69
2021/03/06 10:38:49;;;;;;;4.25;3.38;;;;;;;;;;5026537;28;20056;-70
2021/03/06 10:41:17;;;;;;;4.47;2.95;;;;;;;;;;5053532;28;20106;-70
2021/03/06 10:43:50;;;;;;;7.75;3.70;;;;;;;;;;5033738;28;20076;-69
2021/03/06 10:46:21;;;;;;;5.00;2.88;;;;;;;;;;5038189;28;20098;-69
2021/03/06 10:48:56;;;;;;;5.47;3.20;;;;;;;;;;5045430;28;20136;-70
2021/03/06 10:51:23;;;;;;;4.47;3.38;;;;;;;;;;5027505;28;20041;-72
2021/03/06 10:54:03;;;;;;;3.63;3.25;;;;;;;;;;5053807;28;20102;-72
2021/03/06 10:56:29;;;;;;;4.90;3.20;;;;;;;;;;5050007;28;20048;-71
2021/03/06 10:58:59;;;;;;;3.70;3.13;;;;;;;;;;5051466;28;20087;-72
2021/03/06 11:01:43;;;;;;;5.40;2.88;;;;;;;;;;5038240;28;20445;-72
2021/03/06 11:04:29;;;;;;;5.68;2.90;;;;;;;;;;5035048;28;20127;-72
2021/03/06 11:06:58;;;;;;;2.95;2.55;;;;;;;;;;5062289;28;20063;-75
2021/03/06 11:09:26;;;;;;;3.10;2.47;;;;;;;;;;5032873;28;20511;-73
2021/03/06 11:11:52;;;;;;;4.43;3.05;;;;;;;;;;5021968;28;20058;-72
2021/03/06 11:14:23;;;;;;;3.15;2.42;;;;;;;;;;5052921;28;20110;-72
2021/03/06 11:16:49;;;;;;;3.22;2.53;;;;;;;;;;5069069;28;20102;-69
2021/03/06 11:19:16;;;;;;;6.05;2.55;;;;;;;;;;5030322;28;20048;-76
2021/03/06 11:21:42;;;;;;;4.18;2.97;;;;;;;;;;5053602;28;20082;-76
2021/03/06 11:24:09;;;;;;;5.13;2.92;;;;;;;;;;5022687;28;20495;-76
2021/03/06 11:26:36;;;;;;;2.78;2.50;;;;;;;;;;5053407;28;20052;-76
2021/03/06 11:29:03;;;;;;;3.75;2.63;;;;;;;;;;5043238;28;20055;-74
2021/03/06 11:31:47;;;;;;;4.35;2.88;;;;;;;;;;5042304;28;20059;-75
2021/03/06 11:34:14;;;;;;;4.72;2.60;;;;;;;;;;5054067;28;20037;-74
2021/03/06 11:36:40;;;;;;;3.85;2.60;;;;;;;;;;5067427;28;20181;-73
2021/03/06 11:39:06;;;;;;;2.47;2.22;;;;;;;;;;5071402;28;20083;-74
2021/03/06 11:41:32;;;;;;;4.80;3.50;;;;;;;;;;5071776;28;20124;-71
2021/03/06 11:43:58;;;;;;;5.28;3.42;;;;;;;;;;5068220;28;20048;-75
2021/03/06 11:46:24;;;;;;;5.05;2.92;;;;;;;;;;5053384;28;20480;-73
2021/03/06 11:48:52;;;;;;;5.50;2.70;;;;;;;;;;5071570;28;20052;-74
2021/03/06 11:51:18;;;;;;;4.35;3.10;;;;;;;;;;5071794;28;20040;-75
2021/03/06 11:53:44;;;;;;;4.22;2.60;;;;;;;;;;5071661;28;20117;-73
2021/03/06 11:56:11;;;;;;;3.58;2.70;;;;;;;;;;5071154;28;20048;-71
2021/03/06 11:58:37;;;;;;;2.88;2.50;;;;;;;;;;5053480;28;20870;-71
2021/03/06 12:01:03;;;;;;;3.30;2.60;;;;;;;;;;5071436;28;20040;-71
2021/03/06 12:03:29;;;;;;;4.18;2.53;;;;;;;;;;5070873;28;20049;-70
2021/03/06 12:05:56;;;;;;;3.72;2.65;;;;;;;;;;5069338;28;20048;-68
2021/03/06 12:08:22;;;;;;;5.38;2.30;;;;;;;;;;5068971;28;20503;-68
2021/03/06 12:10:48;;;;;;;2.55;2.20;;;;;;;;;;5053556;28;20060;-70
2021/03/06 12:13:15;;;;;;;3.90;2.50;;;;;;;;;;5069842;28;20054;-74
2021/03/06 12:15:41;;;;;;;4.45;2.38;;;;;;;;;;5070710;28;20467;-69
2021/03/06 12:18:07;;;;;;;2.28;2.08;;;;;;;;;;5070489;28;20044;-69
2021/03/06 12:20:34;;;;;;;2.40;2.08;;;;;;;;;;5036870;28;20067;-69
2021/03/06 12:23:00;;;;;;;2.83;2.35;;;;;;;;;;5036588;28;20056;-72
2021/03/06 12:25:28;;;;;;;3.63;2.33;;;;;;;;;;5049926;28;20773;-71
2021/03/06 12:27:54;;;;;;;3.88;2.13;;;;;;;;;;5053397;28;20494;-71
2021/03/06 12:30:20;;;;;;;3.15;2.40;;;;;;;;;;5048756;28;20048;-72
2021/03/06 12:32:48;;;;;;;2.42;1.90;;;;;;;;;;5051631;28;20094;-71
2021/03/06 12:35:15;;;;;;;2.83;2.03;;;;;;;;;;5017640;28;20056;-69
2021/03/06 12:37:41;;;;;;;3.58;2.17;;;;;;;;;;5034057;28;20053;-71
2021/03/06 12:40:08;;;;;;;2.70;2.50;;;;;;;;;;5050451;28;20053;-72
2021/03/06 12:42:35;;;;;;;3.00;2.20;;;;;;;;;;5034017;28;20479;-71
2021/03/06 12:45:06;;;;;;;5.95;2.50;;;;;;;;;;5051639;28;20048;-72
2021/03/06 12:47:32;;;;;;;2.38;2.08;;;;;;;;;;5050127;28;20049;-71
2021/03/06 12:49:58;;;;;;;2.80;2.20;;;;;;;;;;5034216;28;20449;-71
2021/03/06 12:52:24;;;;;;;2.72;2.00;;;;;;;;;;5033898;28;20103;-70
2021/03/06 12:54:50;;;;;;;3.30;2.20;;;;;;;;;;5017164;28;20045;-72
2021/03/06 12:57:16;;;;;;;2.95;2.13;;;;;;;;;;5051148;28;20106;-73
2021/03/06 12:59:42;;;;;;;2.60;1.90;;;;;;;;;;5061258;28;20033;-73
2021/03/06 13:02:09;;;;;;;2.40;2.20;;;;;;;;;;5059687;28;20029;-68
2021/03/06 13:04:35;;;;;;;4.07;2.35;;;;;;;;;;5075712;28;20057;-70
2021/03/06 13:07:01;;;;;;;2.40;2.17;;;;;;;;;;5075087;28;20055;-70
2021/03/06 13:09:27;;;;;;;3.17;2.20;;;;;;;;;;5048304;28;20048;-71
2021/03/06 13:11:54;;;;;;;2.92;2.60;;;;;;;;;;5034001;28;20057;-70
2021/03/06 13:14:20;;;;;;;3.42;2.25;;;;;;;;;;5033170;28;20130;-71
2021/03/06 13:16:46;;;;;;;3.10;2.25;;;;;;;;;;5032893;28;20519;-70
2021/03/06 13:19:13;;;;;;;3.13;2.30;;;;;;;;;;5033509;28;20099;-70
2021/03/06 13:21:39;;;;;;;6.63;2.30;;;;;;;;;;5033648;28;20056;-73
2021/03/06 13:24:06;;;;;;;2.25;2.05;;;;;;;;;;5033509;28;20056;-74
2021/03/06 13:26:32;;;;;;;2.35;2.10;;;;;;;;;;5049063;28;20052;-72
2021/03/06 13:28:58;;;;;;;2.85;2.20;;;;;;;;;;5039353;28;20061;-70
2021/03/06 13:31:25;;;;;;;3.30;1.98;;;;;;;;;;5060941;28;20041;-70
2021/03/06 13:33:52;;;;;;;2.72;2.30;;;;;;;;;;5034034;28;20068;-70
2021/03/06 13:36:18;;;;;;;2.08;1.88;;;;;;;;;;5063801;28;20044;-70
2021/03/06 13:38:44;;;;;;;2.20;1.90;;;;;;;;;;5069486;28;20102;-69
2021/03/06 13:41:10;;;;;;;2.85;2.10;;;;;;;;;;5035156;28;20044;-70
2021/03/06 13:43:37;;;;;;;2.20;2.00;;;;;;;;;;5051451;28;20487;-74
2021/03/06 13:46:03;;;;;;;5.13;2.20;;;;;;;;;;5035307;28;20044;-72
2021/03/06 13:48:29;;;;;;;2.72;2.10;;;;;;;;;;5051189;28;20056;-71
2021/03/06 13:51:05;;;;;;;3.45;2.00;;;;;;;;;;5030892;28;20053;-72
2021/03/06 13:53:31;;;;;;;3.85;2.40;;;;;;;;;;5031331;28;20045;-72
2021/03/06 13:55:58;;;;;;;2.35;2.10;;;;;;;;;;5067470;28;20568;-71
2021/03/06 13:58:25;;;;;;;2.95;2.15;;;;;;;;;;5016472;28;20057;-70
2021/03/06 14:00:52;;;;;;;4.05;1.92;;;;;;;;;;5046580;28;20060;-69
2021/03/06 14:03:38;;;;;;;2.20;1.90;;;;;;;;;;5053837;28;20051;-72
2021/03/06 14:06:05;;;;;;;2.28;2.08;;;;;;;;;;5050280;28;20127;-72
2021/03/06 14:08:32;;;;;;;2.75;2.40;;;;;;;;;;5049580;28;20467;-71
2021/03/06 14:10:59;;;;;;;4.97;2.90;;;;;;;;;;5033616;28;20053;-71
2021/03/06 14:13:25;;;;;;;2.38;1.90;;;;;;;;;;5066861;28;20083;-71
2021/03/06 14:15:52;;;;;;;2.15;1.98;;;;;;;;;;5067442;28;20518;-71
2021/03/06 14:18:19;;;;;;;2.10;1.90;;;;;;;;;;5046565;28;20056;-68
2021/03/06 14:20:45;;;;;;;4.85;2.45;;;;;;;;;;5049636;28;20056;-70
2021/03/06 14:23:12;;;;;;;2.30;2.10;;;;;;;;;;5048930;28;20060;-70
2021/03/06 14:25:38;;;;;;;4.85;2.25;;;;;;;;;;5062109;28;20571;-70
2021/03/06 14:28:04;;;;;;;1.83;1.73;;;;;;;;;;5067204;28;20053;-71
2021/03/06 14:30:31;;;;;;;3.17;1.92;;;;;;;;;;5030710;28;20101;-70
2021/03/06 14:32:58;;;;;;;4.88;1.80;;;;;;;;;;5051040;28;20290;-71
2021/03/06 14:35:25;;;;;;;3.10;2.35;;;;;;;;;;5036329;28;20083;-72
2021/03/06 14:37:52;;;;;;;2.20;1.90;;;;;;;;;;5049385;28;20083;-72
2021/03/06 14:40:18;;;;;;;2.13;1.92;;;;;;;;;;5067475;28;20045;-71
2021/03/06 14:42:44;;;;;;;2.13;1.90;;;;;;;;;;5049857;28;20048;-70
2021/03/06 14:45:11;;;;;;;3.15;2.10;;;;;;;;;;5049485;28;20041;-71
2021/03/06 14:47:37;;;;;;;2.25;2.00;;;;;;;;;;5067636;28;20106;-71
2021/03/06 14:50:05;;;;;;;2.75;1.80;;;;;;;;;;5070037;28;20048;-71
2021/03/06 14:52:31;;;;;;;2.30;1.90;;;;;;;;;;5043782;28;20048;-72
2021/03/06 14:54:58;;;;;;;2.30;2.10;;;;;;;;;;5052898;28;20128;-70